Time;durP1;ratioP1;P1;durP2;ratioP2;P2;SDS_P1;SDS_P2;PMS_P1;PMS_P2;Temp;Humidity;BMP_temperature;BMP_pressure;BME280_temperature;BME280_humidity;BME280_pressure;Samples;Min_cycle;Max_cycle;Signal;HPM_P1;HPM_P2
2022/08/06 00:01:14;;;;;;;4.27;3.17;;;20.50;99.90;;;;;;5003281;28;20442;-65
2022/08/06 00:03:41;;;;;;;5.10;3.30;;;20.50;99.90;;;;;;5013229;28;20445;-65
2022/08/06 00:06:08;;;;;;;4.40;3.00;;;20.50;99.90;;;;;;5004111;28;20473;-66
2022/08/06 00:08:35;;;;;;;4.10;2.70;;;20.50;99.90;;;;;;4993735;28;20516;-65
2022/08/06 00:11:05;;;;;;;4.00;3.00;;;20.50;99.90;;;;;;5001208;28;20448;-65
2022/08/06 00:13:32;;;;;;;6.80;2.90;;;20.50;99.90;;;;;;5013663;28;20454;-66
2022/08/06 00:16:01;;;;;;;3.23;2.57;;;20.50;99.90;;;;;;5005769;28;21056;-65
2022/08/06 00:18:28;;;;;;;7.53;2.73;;;20.60;99.90;;;;;;4993495;28;20497;-65
2022/08/06 00:20:55;;;;;;;5.10;2.37;;;20.60;99.90;;;;;;4993739;28;20450;-65
2022/08/06 00:23:22;;;;;;;3.70;2.90;;;20.60;99.90;;;;;;4993470;28;20440;-65
2022/08/06 00:25:50;;;;;;;6.03;2.80;;;20.70;99.90;;;;;;4997110;28;20448;-65
2022/08/06 00:28:17;;;;;;;6.27;2.83;;;20.70;99.90;;;;;;5012786;28;20439;-65
2022/08/06 00:30:44;;;;;;;7.40;2.70;;;20.70;99.90;;;;;;5009591;28;20850;-65
2022/08/06 00:33:12;;;;;;;4.67;3.10;;;20.70;99.90;;;;;;4993230;28;20502;-65
2022/08/06 00:35:40;;;;;;;5.33;4.20;;;20.60;99.90;;;;;;4994399;28;20450;-65
2022/08/06 00:38:07;;;;;;;3.93;2.63;;;20.60;99.90;;;;;;5012892;28;20806;-65
2022/08/06 00:40:34;;;;;;;4.53;3.23;;;20.50;99.90;;;;;;5001983;28;20579;-66
2022/08/06 00:43:03;;;;;;;5.13;3.10;;;20.40;99.90;;;;;;4994004;28;20457;-65
2022/08/06 00:45:31;;;;;;;4.80;3.17;;;20.40;99.90;;;;;;5001650;28;20474;-65
2022/08/06 00:47:58;;;;;;;3.80;2.53;;;20.50;99.90;;;;;;5012462;28;20882;-65
2022/08/06 00:50:28;;;;;;;4.90;2.77;;;20.50;99.90;;;;;;5003834;28;20449;-65
2022/08/06 00:52:55;;;;;;;3.43;2.70;;;20.50;99.90;;;;;;4993834;28;20454;-66
2022/08/06 00:55:22;;;;;;;3.80;2.80;;;20.40;99.90;;;;;;4999649;28;20538;-65
2022/08/06 00:57:49;;;;;;;4.43;2.70;;;20.50;99.90;;;;;;5011889;28;20431;-65
2022/08/06 01:00:16;;;;;;;5.20;2.73;;;20.40;99.90;;;;;;5006425;28;20525;-65
2022/08/06 01:02:44;;;;;;;4.77;3.67;;;20.50;99.90;;;;;;4999695;28;20450;-65
2022/08/06 01:05:12;;;;;;;3.37;2.70;;;20.50;99.90;;;;;;5007509;28;20521;-65
2022/08/06 01:07:40;;;;;;;5.07;3.63;;;20.50;99.90;;;;;;4992485;28;20445;-65
2022/08/06 01:10:08;;;;;;;3.50;2.80;;;20.50;99.90;;;;;;4995465;28;21014;-65
2022/08/06 01:12:36;;;;;;;4.17;2.33;;;20.50;99.90;;;;;;5006091;28;20439;-65
2022/08/06 01:15:04;;;;;;;3.53;2.73;;;20.50;99.90;;;;;;4994425;28;20450;-65
2022/08/06 01:17:37;;;;;;;6.70;3.63;;;20.50;99.90;;;;;;5012144;28;21006;-65
2022/08/06 01:20:21;;;;;;;7.00;2.80;;;20.40;99.90;;;;;;5010110;28;20494;-65
2022/08/06 01:23:14;;;;;;;4.87;3.43;;;20.30;99.90;;;;;;4992518;28;20482;-65
2022/08/06 01:26:28;;;;;;;4.43;3.10;;;20.10;99.90;;;;;;4992501;28;20497;-65
2022/08/06 01:29:01;;;;;;;4.97;3.53;;;19.70;99.90;;;;;;5001583;28;20445;-65
2022/08/06 01:31:33;;;;;;;4.27;3.63;;;19.40;99.90;;;;;;5009926;28;20443;-65
2022/08/06 01:34:06;;;;;;;5.80;3.67;;;19.30;99.90;;;;;;4999465;28;20432;-65
2022/08/06 01:36:40;;;;;;;5.70;2.90;;;19.30;99.90;;;;;;4992434;28;20455;-64
2022/08/06 01:39:07;;;;;;;4.97;3.10;;;19.30;99.90;;;;;;5004653;28;20481;-65
2022/08/06 01:41:42;;;;;;;4.50;3.50;;;19.10;99.90;;;;;;5012075;28;20444;-65
2022/08/06 01:44:14;;;;;;;4.23;3.37;;;19.10;99.90;;;;;;5009860;28;20801;-65
2022/08/06 01:46:45;;;;;;;4.00;3.60;;;18.90;99.90;;;;;;5005414;28;20464;-65
2022/08/06 01:49:14;;;;;;;5.07;4.00;;;18.80;99.90;;;;;;5004638;28;20500;-68
2022/08/06 01:51:44;;;;;;;4.47;2.97;;;18.80;99.90;;;;;;5009758;28;20435;-65
2022/08/06 01:54:14;;;;;;;3.97;2.70;;;18.80;99.90;;;;;;5008819;28;20446;-66
2022/08/06 01:56:44;;;;;;;5.03;3.63;;;18.80;99.90;;;;;;5012158;28;20447;-65
2022/08/06 01:59:16;;;;;;;5.60;3.77;;;18.80;99.90;;;;;;5007411;28;20477;-65
2022/08/06 02:01:48;;;;;;;3.70;3.13;;;18.60;99.90;;;;;;4992320;28;20442;-65
2022/08/06 02:04:16;;;;;;;3.90;2.93;;;18.60;99.90;;;;;;4994593;28;20561;-65
2022/08/06 02:06:46;;;;;;;4.40;3.40;;;18.70;99.90;;;;;;4992201;28;20844;-65
2022/08/06 02:09:17;;;;;;;4.80;3.53;;;18.80;99.90;;;;;;4997961;28;20506;-65
2022/08/06 02:11:50;;;;;;;8.20;3.93;;;18.90;99.90;;;;;;5015516;28;20481;-65
2022/08/06 02:14:22;;;;;;;4.27;3.50;;;19.10;99.90;;;;;;5013496;28;20946;-65
2022/08/06 02:16:50;;;;;;;5.30;3.37;;;19.10;99.90;;;;;;5015230;28;20443;-65
2022/08/06 02:19:21;;;;;;;4.53;3.57;;;19.20;99.90;;;;;;5012326;28;20825;-65
2022/08/06 02:21:49;;;;;;;4.20;3.23;;;19.30;99.90;;;;;;4996362;28;20842;-65
2022/08/06 02:24:17;;;;;;;5.70;3.37;;;19.30;99.90;;;;;;5014072;28;20444;-65
2022/08/06 02:26:45;;;;;;;3.80;3.00;;;19.30;99.90;;;;;;4995671;28;20440;-65
2022/08/06 02:29:17;;;;;;;4.97;3.17;;;19.30;99.90;;;;;;4995660;28;20443;-65
2022/08/06 02:31:46;;;;;;;3.80;3.10;;;19.40;99.90;;;;;;5014527;28;20844;-65
2022/08/06 02:34:18;;;;;;;5.30;3.20;;;19.40;99.90;;;;;;5014960;28;20559;-65
2022/08/06 02:36:53;;;;;;;7.03;3.20;;;19.50;99.90;;;;;;4995163;28;20441;-65
2022/08/06 02:39:25;;;;;;;6.43;3.50;;;19.50;99.90;;;;;;4995170;28;20471;-65
2022/08/06 02:42:02;;;;;;;5.67;3.30;;;19.60;99.90;;;;;;4995278;28;20986;-65
2022/08/06 02:44:40;;;;;;;5.50;3.77;;;19.60;99.90;;;;;;4995260;28;20503;-65
2022/08/06 02:47:14;;;;;;;4.53;3.03;;;19.70;99.90;;;;;;4997414;28;20543;-65
2022/08/06 02:49:46;;;;;;;6.97;3.73;;;19.70;99.90;;;;;;4995484;28;20449;-65
2022/08/06 02:52:19;;;;;;;3.83;3.40;;;19.80;99.90;;;;;;5014563;28;20439;-65
2022/08/06 02:54:52;;;;;;;4.93;3.43;;;19.80;99.90;;;;;;5013870;28;20497;-65
2022/08/06 02:57:24;;;;;;;6.07;4.00;;;19.80;99.90;;;;;;4995084;28;20443;-65
2022/08/06 02:59:55;;;;;;;9.33;4.13;;;19.90;99.90;;;;;;5003601;28;20509;-65
2022/08/06 03:02:27;;;;;;;4.77;3.50;;;19.90;99.90;;;;;;5014432;28;20510;-65
2022/08/06 03:04:57;;;;;;;4.43;3.33;;;19.90;99.90;;;;;;5003530;28;20461;-65
2022/08/06 03:07:28;;;;;;;5.73;3.80;;;19.90;99.90;;;;;;4995159;28;20445;-65
2022/08/06 03:09:56;;;;;;;5.67;3.47;;;19.90;99.90;;;;;;5001191;28;20445;-65
2022/08/06 03:12:25;;;;;;;4.87;3.60;;;20.00;99.90;;;;;;5014512;28;20447;-65
2022/08/06 03:14:58;;;;;;;4.30;3.20;;;20.00;99.90;;;;;;5004726;28;20441;-65
2022/08/06 03:17:28;;;;;;;6.10;3.47;;;20.00;99.90;;;;;;4994773;28;20444;-65
2022/08/06 03:19:57;;;;;;;3.93;3.40;;;20.00;99.90;;;;;;5002576;28;20481;-66
2022/08/06 03:22:26;;;;;;;4.30;3.57;;;20.00;99.90;;;;;;5014190;28;20799;-65
2022/08/06 03:24:55;;;;;;;4.70;3.73;;;20.00;99.90;;;;;;5005503;28;20938;-65
2022/08/06 03:27:24;;;;;;;5.70;3.90;;;20.10;99.90;;;;;;4994534;28;20522;-65
2022/08/06 03:29:53;;;;;;;4.90;3.57;;;20.00;99.90;;;;;;5001486;28;20444;-65
2022/08/06 03:32:20;;;;;;;7.60;4.03;;;20.00;99.90;;;;;;5013843;28;20508;-65
2022/08/06 03:34:49;;;;;;;7.90;3.43;;;20.00;99.90;;;;;;5001108;28;20886;-65
2022/08/06 03:37:19;;;;;;;5.50;3.47;;;20.00;99.90;;;;;;4994015;28;20783;-65
2022/08/06 03:39:47;;;;;;;4.53;3.13;;;20.00;99.90;;;;;;5004934;28;20558;-65
2022/08/06 03:42:15;;;;;;;6.20;3.93;;;20.00;99.90;;;;;;5013651;28;20500;-65
2022/08/06 03:44:42;;;;;;;4.97;3.33;;;20.00;99.90;;;;;;5003142;28;20446;-65
2022/08/06 03:47:15;;;;;;;6.83;3.60;;;20.00;99.90;;;;;;4994041;28;20477;-65
2022/08/06 03:49:46;;;;;;;4.10;3.10;;;20.00;99.90;;;;;;5010986;28;20445;-65
2022/08/06 03:52:20;;;;;;;4.50;3.50;;;20.00;99.90;;;;;;5013507;28;20439;-65
2022/08/06 03:54:51;;;;;;;4.13;3.40;;;20.00;99.90;;;;;;4993806;28;20499;-65
2022/08/06 03:57:21;;;;;;;7.63;3.57;;;20.00;99.90;;;;;;4994059;28;20450;-65
2022/08/06 03:59:52;;;;;;;3.80;3.20;;;20.10;99.90;;;;;;5011341;28;20481;-65
2022/08/06 04:02:20;;;;;;;5.37;3.30;;;20.10;99.90;;;;;;5013753;28;20449;-65
2022/08/06 04:04:48;;;;;;;15.43;4.90;;;20.10;99.90;;;;;;4996140;28;20503;-65
2022/08/06 04:07:18;;;;;;;4.47;3.60;;;20.10;99.90;;;;;;4993989;28;20479;-65
2022/08/06 04:09:46;;;;;;;5.57;4.20;;;20.10;99.90;;;;;;5010098;28;20797;-65
2022/08/06 04:12:14;;;;;;;6.73;4.97;;;20.10;99.90;;;;;;5013753;28;20512;-65
2022/08/06 04:14:41;;;;;;;5.60;4.10;;;20.20;99.90;;;;;;4997311;28;20537;-65
2022/08/06 04:17:11;;;;;;;9.17;4.70;;;20.10;99.90;;;;;;4994023;28;20871;-65
2022/08/06 04:19:40;;;;;;;6.10;4.40;;;20.10;99.90;;;;;;4993709;28;20449;-65
2022/08/06 04:22:07;;;;;;;5.10;3.63;;;20.10;99.90;;;;;;4993326;28;20798;-65
2022/08/06 04:24:36;;;;;;;5.97;4.50;;;20.10;99.90;;;;;;4993852;28;20461;-67
2022/08/06 04:27:06;;;;;;;4.80;4.27;;;20.10;99.90;;;;;;4993832;28;20456;-65
2022/08/06 04:29:36;;;;;;;4.40;3.77;;;20.10;99.90;;;;;;5009519;28;20448;-65
2022/08/06 04:32:04;;;;;;;4.57;3.80;;;20.10;99.90;;;;;;5007855;28;20450;-66
2022/08/06 04:34:32;;;;;;;5.00;4.27;;;20.10;99.90;;;;;;4991733;28;20512;-66
2022/08/06 04:37:02;;;;;;;5.73;4.90;;;20.10;99.90;;;;;;5008632;28;20978;-65
2022/08/06 04:39:31;;;;;;;6.87;3.70;;;20.10;99.90;;;;;;5002033;28;20440;-69
2022/08/06 04:42:00;;;;;;;6.63;3.97;;;20.10;99.90;;;;;;5008703;28;20468;-65
2022/08/06 04:44:28;;;;;;;5.80;3.30;;;20.20;99.90;;;;;;5009869;28;20539;-65
2022/08/06 04:46:57;;;;;;;4.77;3.30;;;20.10;99.90;;;;;;5008482;28;20524;-65
2022/08/06 04:49:24;;;;;;;4.07;3.53;;;20.10;99.90;;;;;;5010629;28;20445;-65
2022/08/06 04:51:52;;;;;;;6.80;3.93;;;20.10;99.90;;;;;;5002454;28;20439;-65
2022/08/06 04:54:19;;;;;;;4.47;3.53;;;20.20;99.90;;;;;;5009590;28;20596;-65
2022/08/06 04:56:46;;;;;;;4.70;3.80;;;20.20;99.90;;;;;;5005336;28;20844;-65
2022/08/06 04:59:18;;;;;;;5.33;3.90;;;20.20;99.90;;;;;;5010255;28;20837;-65
2022/08/06 05:01:46;;;;;;;7.93;3.80;;;20.20;99.90;;;;;;5007302;28;20489;-65
2022/08/06 05:04:13;;;;;;;6.97;3.80;;;20.20;99.90;;;;;;5005088;28;20844;-65
2022/08/06 05:06:48;;;;;;;5.50;3.20;;;20.30;99.90;;;;;;5010201;28;20536;-65
2022/08/06 05:09:21;;;;;;;4.67;3.43;;;20.30;99.90;;;;;;5010996;28;20448;-65
2022/08/06 05:11:52;;;;;;;5.23;3.50;;;20.30;99.90;;;;;;5011154;28;20468;-65
2022/08/06 05:14:25;;;;;;;4.63;3.50;;;20.30;99.90;;;;;;5005547;28;20449;-65
2022/08/06 05:16:55;;;;;;;7.07;3.60;;;20.40;99.90;;;;;;5008115;28;20533;-65
2022/08/06 05:19:28;;;;;;;4.20;3.23;;;20.40;99.90;;;;;;5008344;28;20940;-65
2022/08/06 05:21:58;;;;;;;5.30;3.63;;;20.30;99.90;;;;;;5009007;28;20483;-65
2022/08/06 05:24:26;;;;;;;7.10;3.50;;;20.40;99.90;;;;;;5006914;28;20446;-65
2022/08/06 05:26:53;;;;;;;4.93;3.33;;;20.40;99.90;;;;;;5007188;28;20446;-65
2022/08/06 05:29:22;;;;;;;13.13;4.50;;;20.40;99.90;;;;;;5009822;28;20445;-65
2022/08/06 05:31:49;;;;;;;4.90;4.40;;;20.40;99.90;;;;;;5008631;28;20527;-65
2022/08/06 05:34:17;;;;;;;6.87;5.27;;;20.50;99.90;;;;;;5008778;28;20437;-66
2022/08/06 05:36:44;;;;;;;6.93;4.43;;;20.50;99.90;;;;;;5005539;28;20439;-65
2022/08/06 05:39:11;;;;;;;6.53;4.77;;;20.50;99.90;;;;;;5009630;28;20440;-65
2022/08/06 05:41:38;;;;;;;4.70;4.00;;;20.50;99.90;;;;;;5007264;28;20485;-65
2022/08/06 05:44:05;;;;;;;5.47;4.80;;;20.50;99.90;;;;;;5007773;28;20450;-66
2022/08/06 05:46:39;;;;;;;7.53;5.67;;;20.50;99.90;;;;;;5010805;28;20551;-65
2022/08/06 05:49:08;;;;;;;9.47;5.50;;;20.50;99.90;;;;;;5008366;28;20940;-66
2022/08/06 05:51:40;;;;;;;7.73;6.10;;;20.50;99.90;;;;;;5014189;28;20443;-66
2022/08/06 05:54:20;;;;;;;7.23;5.60;;;20.50;99.90;;;;;;5011969;28;20508;-66
2022/08/06 05:56:49;;;;;;;8.27;6.90;;;20.60;99.90;;;;;;5010715;28;20438;-66
2022/08/06 05:59:22;;;;;;;7.67;6.10;;;20.60;99.90;;;;;;5013996;28;20438;-66
2022/08/06 06:01:51;;;;;;;10.97;7.40;;;20.50;99.90;;;;;;5013042;28;20830;-65
2022/08/06 06:04:21;;;;;;;11.53;7.80;;;20.50;99.90;;;;;;5008889;28;20528;-65
2022/08/06 06:06:48;;;;;;;10.63;7.13;;;20.40;99.90;;;;;;5010038;28;20450;-66
2022/08/06 06:09:16;;;;;;;11.27;8.23;;;20.50;99.90;;;;;;5012362;28;20438;-65
2022/08/06 06:11:44;;;;;;;10.07;7.20;;;20.50;99.90;;;;;;5007934;28;20773;-66
2022/08/06 06:14:29;;;;;;;12.20;8.70;;;20.50;99.90;;;;;;5008801;28;20494;-65
2022/08/06 06:17:17;;;;;;;9.80;7.50;;;20.40;99.90;;;;;;5013102;28;20438;-66
2022/08/06 06:19:51;;;;;;;12.10;9.10;;;20.40;99.90;;;;;;5013124;28;20491;-66
2022/08/06 06:22:24;;;;;;;13.03;8.43;;;20.30;99.90;;;;;;5009808;28;20554;-65
2022/08/06 06:24:56;;;;;;;12.50;8.87;;;20.30;99.90;;;;;;5013583;28;20488;-65
2022/08/06 06:27:30;;;;;;;15.53;8.10;;;20.30;99.90;;;;;;5011024;28;20498;-65
2022/08/06 06:30:02;;;;;;;9.73;6.83;;;20.30;99.90;;;;;;5013404;28;20506;-65
2022/08/06 06:32:47;;;;;;;7.13;5.63;;;20.30;99.90;;;;;;5006177;28;20476;-66
2022/08/06 06:35:21;;;;;;;8.63;6.23;;;20.30;99.90;;;;;;5006737;28;20528;-66
2022/08/06 06:37:56;;;;;;;8.33;6.23;;;20.20;99.90;;;;;;5011728;28;20514;-64
2022/08/06 06:40:36;;;;;;;10.10;5.77;;;20.20;99.90;;;;;;5010259;28;20917;-65
2022/08/06 06:43:09;;;;;;;13.30;6.33;;;20.20;99.90;;;;;;5004522;28;20450;-65
2022/08/06 06:45:49;;;;;;;7.70;6.20;;;20.20;99.90;;;;;;5010311;28;20500;-65
2022/08/06 06:48:21;;;;;;;7.27;4.90;;;20.20;99.90;;;;;;5012999;28;20441;-65
2022/08/06 06:50:55;;;;;;;7.90;5.57;;;20.20;99.90;;;;;;5012651;28;20440;-65
2022/08/06 06:53:29;;;;;;;6.90;5.57;;;20.20;99.90;;;;;;5007105;28;20445;-66
2022/08/06 06:55:58;;;;;;;6.83;5.20;;;20.20;99.90;;;;;;5010915;28;20540;-65
2022/08/06 06:58:32;;;;;;;7.47;5.27;;;20.20;99.90;;;;;;5008789;28;20526;-66
2022/08/06 07:01:02;;;;;;;7.00;4.90;;;20.20;99.90;;;;;;5005635;28;20829;-65
2022/08/06 07:03:33;;;;;;;6.40;5.03;;;20.20;99.90;;;;;;5012590;28;20441;-65
2022/08/06 07:06:02;;;;;;;6.90;5.07;;;20.20;99.90;;;;;;5013216;28;20895;-65
2022/08/06 07:08:35;;;;;;;7.40;4.87;;;20.20;99.90;;;;;;5009345;28;20771;-66
2022/08/06 07:11:03;;;;;;;5.90;5.30;;;20.10;99.90;;;;;;5013324;28;20587;-65
2022/08/06 07:13:31;;;;;;;7.77;5.53;;;20.10;99.90;;;;;;5010640;28;20440;-65
2022/08/06 07:15:59;;;;;;;6.67;5.73;;;20.00;99.90;;;;;;5013810;28;20531;-66
2022/08/06 07:18:27;;;;;;;6.00;5.40;;;20.00;99.90;;;;;;5013543;28;20449;-66
2022/08/06 07:20:58;;;;;;;5.77;5.07;;;19.90;99.90;;;;;;4995341;28;20876;-65
2022/08/06 07:23:26;;;;;;;7.23;5.73;;;19.90;99.90;;;;;;4995723;28;20504;-65
2022/08/06 07:25:55;;;;;;;7.53;6.23;;;19.90;99.90;;;;;;4995291;28;20493;-65
2022/08/06 07:28:25;;;;;;;9.90;6.00;;;19.80;99.90;;;;;;4994580;28;20482;-66
2022/08/06 07:30:54;;;;;;;7.30;5.77;;;19.80;99.90;;;;;;4995504;28;20547;-65
2022/08/06 07:33:23;;;;;;;7.23;5.23;;;19.70;99.90;;;;;;4995342;28;20457;-65
2022/08/06 07:35:54;;;;;;;7.80;5.23;;;19.70;99.90;;;;;;4994701;28;20537;-65
2022/08/06 07:38:24;;;;;;;6.37;5.30;;;19.70;99.90;;;;;;4995321;28;20785;-65
2022/08/06 07:40:55;;;;;;;7.57;5.83;;;19.60;99.90;;;;;;4995130;28;20481;-65
2022/08/06 07:43:26;;;;;;;8.83;5.33;;;19.60;99.90;;;;;;4994901;28;20515;-67
2022/08/06 07:46:01;;;;;;;6.07;5.47;;;19.50;99.90;;;;;;4994588;28;20478;-65
2022/08/06 07:48:32;;;;;;;5.67;4.60;;;19.50;99.90;;;;;;4994714;28;20446;-65
2022/08/06 07:51:04;;;;;;;5.40;4.47;;;19.50;99.90;;;;;;4994625;28;20468;-65
2022/08/06 07:53:37;;;;;;;6.33;4.70;;;19.50;99.90;;;;;;4994950;28;20442;-64
2022/08/06 07:56:09;;;;;;;8.90;5.30;;;19.50;99.90;;;;;;4995030;28;20478;-66
2022/08/06 07:58:39;;;;;;;7.30;4.80;;;19.40;99.90;;;;;;4994611;28;20480;-65
2022/08/06 08:01:07;;;;;;;5.20;4.37;;;19.40;99.90;;;;;;4994325;28;20539;-66
2022/08/06 08:06:24;;;;;;;5.40;4.60;;;19.40;99.90;;;;;;4994503;28;20435;-65
2022/08/06 08:08:57;;;;;;;9.90;5.27;;;19.40;99.90;;;;;;4994720;28;20529;-65
2022/08/06 08:11:26;;;;;;;8.60;5.23;;;19.40;99.90;;;;;;4994048;28;20473;-65
2022/08/06 08:13:58;;;;;;;9.73;5.30;;;19.40;99.90;;;;;;4994318;28;20438;-65
2022/08/06 08:16:26;;;;;;;10.50;6.60;;;19.30;99.90;;;;;;4994617;28;20448;-65
2022/08/06 08:18:53;;;;;;;11.90;5.07;;;19.30;99.90;;;;;;4993949;28;20481;-65
2022/08/06 08:21:21;;;;;;;7.60;5.60;;;19.30;99.90;;;;;;4993744;28;20804;-65
2022/08/06 08:23:50;;;;;;;6.20;5.60;;;19.30;99.90;;;;;;4994115;28;20449;-65
2022/08/06 08:26:18;;;;;;;6.70;6.00;;;19.30;99.90;;;;;;4993747;28;20448;-65
2022/08/06 08:28:45;;;;;;;5.90;5.00;;;19.40;99.90;;;;;;4994099;28;20443;-65
2022/08/06 08:31:13;;;;;;;7.40;6.70;;;19.40;99.90;;;;;;4994219;28;20871;-65
2022/08/06 08:33:40;;;;;;;10.57;9.53;;;19.40;99.90;;;;;;4994132;28;20471;-65
2022/08/06 08:36:08;;;;;;;14.43;7.43;;;19.40;99.90;;;;;;4993917;28;20476;-65
2022/08/06 08:38:36;;;;;;;7.33;6.63;;;19.40;99.90;;;;;;4994021;28;20907;-65
2022/08/06 08:41:17;;;;;;;9.30;8.40;;;19.50;99.90;;;;;;4993712;28;20453;-65
2022/08/06 08:43:51;;;;;;;10.60;8.90;;;19.50;99.90;;;;;;4993772;28;20454;-65
2022/08/06 08:46:20;;;;;;;9.83;7.70;;;19.60;99.90;;;;;;4993524;28;20472;-65
2022/08/06 08:48:49;;;;;;;8.90;8.00;;;19.60;99.90;;;;;;4993420;28;20494;-65
2022/08/06 08:51:17;;;;;;;11.37;8.67;;;19.60;99.90;;;;;;4993717;28;20493;-65
2022/08/06 08:53:49;;;;;;;9.43;8.53;;;19.60;99.90;;;;;;4993586;28;20437;-65
2022/08/06 08:56:26;;;;;;;11.77;8.50;;;19.50;99.70;;;;;;4993407;28;21000;-65
2022/08/06 08:58:54;;;;;;;10.07;9.07;;;19.50;99.70;;;;;;4993735;28;20489;-65
2022/08/06 09:01:22;;;;;;;10.37;8.67;;;19.60;99.90;;;;;;4993856;28;20521;-65
2022/08/06 09:03:49;;;;;;;17.10;9.60;;;19.60;99.90;;;;;;4993814;28;20480;-65
2022/08/06 09:06:17;;;;;;;9.93;8.73;;;19.60;99.90;;;;;;4993255;28;21000;-65
2022/08/06 09:08:46;;;;;;;9.20;8.30;;;19.50;99.90;;;;;;4993925;28;20477;-65
2022/08/06 09:11:13;;;;;;;12.43;10.07;;;19.50;99.90;;;;;;4993366;28;20957;-65
2022/08/06 09:13:40;;;;;;;10.63;9.60;;;19.50;99.90;;;;;;4993548;28;20851;-65
2022/08/06 09:16:09;;;;;;;13.13;11.80;;;19.50;99.90;;;;;;4993419;28;20541;-66
2022/08/06 09:18:36;;;;;;;9.07;8.17;;;19.60;99.90;;;;;;4992867;28;20440;-67
2022/08/06 09:21:10;;;;;;;9.50;8.60;;;19.60;99.90;;;;;;4993413;28;20544;-65
2022/08/06 09:23:39;;;;;;;12.87;10.13;;;19.60;99.90;;;;;;4993488;28;20444;-65
2022/08/06 09:26:06;;;;;;;9.53;8.53;;;19.60;99.90;;;;;;4993599;28;20489;-65
2022/08/06 09:28:35;;;;;;;11.47;8.73;;;19.70;99.90;;;;;;4993254;28;20519;-67
2022/08/06 09:31:07;;;;;;;13.40;9.60;;;19.70;99.90;;;;;;4993705;28;20544;-65
2022/08/06 09:33:37;;;;;;;10.73;9.57;;;19.70;99.90;;;;;;4993568;28;20970;-65
2022/08/06 09:36:06;;;;;;;10.13;9.10;;;19.70;99.90;;;;;;4993314;28;20433;-65
2022/08/06 09:38:45;;;;;;;10.63;9.60;;;19.70;99.90;;;;;;4993109;28;20519;-65
2022/08/06 09:41:14;;;;;;;10.53;9.53;;;19.70;99.70;;;;;;4992992;28;20508;-65
2022/08/06 09:43:42;;;;;;;10.20;9.20;;;19.70;99.90;;;;;;4993303;28;20855;-66
2022/08/06 09:46:09;;;;;;;10.37;9.23;;;19.70;99.90;;;;;;4992698;28;20562;-65
2022/08/06 09:48:38;;;;;;;9.60;8.67;;;19.70;99.90;;;;;;4993192;28;20475;-65
2022/08/06 09:51:05;;;;;;;10.07;9.17;;;19.80;99.90;;;;;;4993067;28;20503;-65
2022/08/06 09:53:32;;;;;;;10.27;9.33;;;19.80;99.90;;;;;;4993314;28;20478;-65
2022/08/06 09:55:59;;;;;;;15.10;8.87;;;19.80;99.90;;;;;;4993212;28;20446;-65
2022/08/06 09:58:33;;;;;;;10.10;9.07;;;19.90;99.90;;;;;;4993068;28;20485;-65
2022/08/06 10:01:12;;;;;;;9.60;8.67;;;19.90;99.80;;;;;;4993229;28;20449;-65
2022/08/06 10:03:41;;;;;;;10.50;9.10;;;20.00;99.80;;;;;;4992981;28;20483;-66
2022/08/06 10:06:10;;;;;;;9.30;8.47;;;20.00;99.70;;;;;;4992861;28;20502;-65
2022/08/06 10:08:38;;;;;;;10.83;9.83;;;20.00;99.60;;;;;;4992655;28;20446;-65
2022/08/06 10:11:05;;;;;;;10.23;9.27;;;20.00;99.30;;;;;;4992855;28;20802;-66
2022/08/06 10:13:33;;;;;;;11.00;10.00;;;20.10;99.80;;;;;;4993261;28;20536;-65
2022/08/06 10:16:14;;;;;;;13.10;10.40;;;20.10;99.90;;;;;;4993368;28;20975;-65
2022/08/06 10:18:44;;;;;;;12.43;11.33;;;20.10;99.80;;;;;;4993386;28;20474;-65
2022/08/06 10:21:13;;;;;;;12.70;11.40;;;20.10;99.90;;;;;;4993086;28;20475;-65
2022/08/06 10:23:42;;;;;;;12.00;10.80;;;20.10;99.50;;;;;;4992962;28;20496;-65
2022/08/06 10:26:14;;;;;;;13.30;11.90;;;20.20;99.90;;;;;;4992556;28;20490;-65
2022/08/06 10:28:44;;;;;;;12.90;11.60;;;20.30;99.90;;;;;;4993572;28;20477;-65
2022/08/06 10:31:13;;;;;;;13.40;12.00;;;20.40;99.70;;;;;;4996029;28;20921;-65
2022/08/06 10:33:48;;;;;;;13.80;12.37;;;20.40;99.50;;;;;;4996436;28;20529;-65
2022/08/06 10:36:20;;;;;;;14.60;13.10;;;20.50;99.20;;;;;;4996267;28;20524;-65
2022/08/06 10:38:53;;;;;;;15.07;13.57;;;20.50;99.00;;;;;;4996534;28;20965;-67
2022/08/06 10:41:21;;;;;;;15.20;13.80;;;20.50;98.90;;;;;;4996544;28;20443;-68
2022/08/06 10:43:53;;;;;;;18.33;15.93;;;20.50;99.10;;;;;;4996005;28;20588;-67
2022/08/06 10:46:20;;;;;;;14.90;12.67;;;20.50;99.00;;;;;;4995994;28;20505;-68
2022/08/06 10:48:49;;;;;;;16.80;15.20;;;20.50;98.90;;;;;;4996327;28;20479;-69
2022/08/06 10:51:16;;;;;;;16.80;15.20;;;20.50;98.70;;;;;;4996140;28;20443;-67
2022/08/06 10:53:45;;;;;;;17.03;15.30;;;20.50;98.90;;;;;;4995862;28;20863;-68
2022/08/06 10:56:14;;;;;;;16.37;14.80;;;20.50;99.40;;;;;;4996207;28;20574;-68
2022/08/06 10:58:41;;;;;;;15.20;13.70;;;20.50;99.20;;;;;;4995488;28;20467;-68
2022/08/06 11:01:14;;;;;;;15.40;14.00;;;20.50;99.30;;;;;;4995668;28;20948;-68
2022/08/06 11:04:07;;;;;;;15.03;13.53;;;20.40;99.10;;;;;;4995708;28;20604;-68
2022/08/06 11:06:53;;;;;;;14.47;13.00;;;20.40;99.30;;;;;;4995925;28;20513;-68
2022/08/06 11:09:58;;;;;;;16.27;14.67;;;20.30;99.30;;;;;;4995939;28;20482;-67
2022/08/06 11:12:40;;;;;;;18.30;16.30;;;20.30;99.30;;;;;;4995764;28;20441;-68
2022/08/06 11:15:07;;;;;;;16.57;14.80;;;20.20;99.20;;;;;;4995793;28;20469;-68
2022/08/06 11:17:45;;;;;;;15.33;13.80;;;20.20;99.40;;;;;;4995510;28;21024;-68
2022/08/06 11:20:41;;;;;;;15.13;13.63;;;20.10;99.60;;;;;;4995690;28;20443;-68
2022/08/06 11:23:29;;;;;;;19.17;15.47;;;20.20;99.80;;;;;;4995610;28;20547;-67
2022/08/06 11:26:00;;;;;;;16.43;14.77;;;20.30;99.60;;;;;;4995316;28;20439;-67
2022/08/06 11:28:59;;;;;;;16.70;15.00;;;20.30;99.20;;;;;;4995246;28;20512;-67
2022/08/06 11:31:38;;;;;;;16.50;14.70;;;20.30;99.10;;;;;;4995330;28;20438;-68
2022/08/06 11:34:09;;;;;;;17.57;15.67;;;20.30;99.00;;;;;;4995305;28;20503;-67
2022/08/06 11:36:56;;;;;;;16.87;14.97;;;20.30;99.10;;;;;;4995447;28;20504;-68
2022/08/06 11:39:24;;;;;;;16.70;15.03;;;20.30;99.20;;;;;;4995508;28;20434;-67
2022/08/06 11:41:56;;;;;;;15.53;14.00;;;20.40;98.90;;;;;;4994447;28;20474;-67
2022/08/06 11:44:24;;;;;;;15.63;14.10;;;20.40;98.60;;;;;;4994874;28;21007;-67
2022/08/06 11:47:09;;;;;;;17.17;15.27;;;20.40;99.00;;;;;;4994941;28;20508;-68
2022/08/06 11:49:38;;;;;;;16.40;14.73;;;20.50;99.00;;;;;;4994749;28;20439;-68
2022/08/06 11:52:07;;;;;;;16.53;14.73;;;20.40;98.50;;;;;;4995018;28;20990;-68
2022/08/06 11:54:37;;;;;;;15.93;14.33;;;20.50;98.80;;;;;;4994891;28;20438;-68
2022/08/06 11:57:23;;;;;;;19.57;14.57;;;20.50;98.40;;;;;;4994938;28;20473;-68
2022/08/06 12:00:09;;;;;;;16.80;15.20;;;20.40;98.40;;;;;;4994608;28;20480;-67
2022/08/06 12:02:56;;;;;;;18.47;15.97;;;20.40;98.60;;;;;;4995045;28;20490;-68
2022/08/06 12:05:48;;;;;;;19.87;16.27;;;20.40;99.00;;;;;;4994739;28;20459;-68
2022/08/06 12:08:25;;;;;;;19.63;17.30;;;20.30;98.80;;;;;;4994816;28;20439;-68
2022/08/06 12:11:35;;;;;;;19.30;17.30;;;20.40;98.90;;;;;;4994929;28;20442;-67
2022/08/06 12:14:02;;;;;;;18.20;15.90;;;20.40;98.70;;;;;;4994560;28;20454;-68
2022/08/06 12:16:32;;;;;;;16.30;14.63;;;20.40;98.20;;;;;;4994480;28;20533;-67
2022/08/06 12:19:00;;;;;;;18.03;16.10;;;20.40;98.20;;;;;;4994347;28;20443;-70
2022/08/06 12:21:27;;;;;;;17.33;15.60;;;20.40;98.30;;;;;;4993940;28;20446;-67
2022/08/06 12:23:56;;;;;;;16.60;14.90;;;20.50;98.40;;;;;;4993895;28;20550;-67
2022/08/06 12:26:23;;;;;;;16.97;15.30;;;20.50;97.40;;;;;;4994391;28;20451;-67
2022/08/06 12:28:50;;;;;;;18.60;15.30;;;20.50;98.00;;;;;;4994314;28;20471;-68
2022/08/06 12:31:39;;;;;;;16.20;14.60;;;20.50;98.50;;;;;;4994480;28;20536;-68
2022/08/06 12:34:07;;;;;;;18.07;16.20;;;20.50;98.00;;;;;;4990150;28;20466;-68
2022/08/06 12:36:36;;;;;;;18.17;16.27;;;20.50;98.10;;;;;;4994190;28;20508;-68
2022/08/06 12:39:07;;;;;;;17.93;15.10;;;20.50;98.10;;;;;;4994602;28;20462;-68
2022/08/06 12:41:38;;;;;;;18.23;16.30;;;20.50;98.30;;;;;;4993885;28;20841;-68
2022/08/06 12:44:05;;;;;;;16.97;15.17;;;20.50;98.20;;;;;;4994114;28;20491;-68
2022/08/06 12:46:32;;;;;;;17.50;15.70;;;20.50;98.30;;;;;;4993468;28;20502;-68
2022/08/06 12:49:00;;;;;;;19.00;16.90;;;20.50;98.30;;;;;;4994205;28;20473;-67
2022/08/06 12:51:28;;;;;;;18.97;17.07;;;20.40;98.60;;;;;;4993562;28;20457;-67
2022/08/06 12:53:58;;;;;;;16.67;14.83;;;20.40;98.90;;;;;;4993365;28;20950;-68
2022/08/06 12:56:29;;;;;;;16.87;15.23;;;20.40;99.00;;;;;;4993876;28;21009;-68
2022/08/06 12:58:57;;;;;;;20.10;16.90;;;20.50;98.90;;;;;;4993461;28;20444;-68
2022/08/06 13:01:27;;;;;;;17.53;15.63;;;20.50;98.80;;;;;;4993272;28;20829;-69
2022/08/06 13:03:56;;;;;;;19.30;17.30;;;20.40;98.60;;;;;;4993667;28;20530;-67